Time,TemperatureF,DewpointF,PressureIn,WindDirection,WindDirectionDegrees,WindSpeedMPH,WindSpeedGustMPH,Humidity,HourlyPrecipIn,Conditions,Clouds,dailyrainin,SoftwareType,DateUTC
2013-09-17 00:24:00,55.0,45.0,-100.00,North,349,6.0,13.0,70,0.00,,,-99.99,,2013-09-17 04:24:00,
2013-09-17 00:34:00,55.0,45.0,-100.00,North,349,6.0,13.0,70,0.00,,,-99.99,,2013-09-17 04:34:00,
2013-09-17 00:44:00,55.0,45.0,-100.00,North,349,6.0,13.0,70,0.00,,,-99.99,,2013-09-17 04:44:00,
2013-09-17 01:23:00,56.0,45.0,-100.00,North,8,6.0,15.0,68,0.00,,,-99.99,,2013-09-17 05:23:00,
2013-09-17 01:34:00,56.0,45.0,-100.00,North,8,6.0,15.0,68,0.00,,,-99.99,,2013-09-17 05:34:00,
2013-09-17 01:42:00,56.0,45.0,-100.00,North,8,6.0,15.0,68,0.00,,,-99.99,,2013-09-17 05:42:00,
2013-09-17 02:22:00,54.0,45.0,-100.00,North,10,6.0,18.0,69,0.00,,,-99.99,,2013-09-17 06:22:00,
2013-09-17 02:32:00,54.0,45.0,-100.00,North,10,6.0,18.0,69,0.00,,,-99.99,,2013-09-17 06:32:00,
2013-09-17 02:42:00,54.0,45.0,-100.00,North,10,6.0,18.0,69,0.00,,,-99.99,,2013-09-17 06:42:00,
2013-09-17 03:23:00,54.0,44.0,-100.00,North,11,6.0,17.0,69,0.00,,,-99.99,,2013-09-17 07:23:00,
2013-09-17 03:32:00,54.0,44.0,-100.00,North,11,6.0,17.0,69,0.00,,,-99.99,,2013-09-17 07:32:00,
2013-09-17 03:43:00,54.0,44.0,-100.00,North,11,6.0,17.0,69,0.00,,,-99.99,,2013-09-17 07:43:00,
2013-09-17 04:22:00,53.0,43.0,-100.00,NNE,16,5.0,16.0,70,0.00,,,-99.99,,2013-09-17 08:22:00,
2013-09-17 04:32:00,53.0,43.0,-100.00,NNE,16,5.0,16.0,70,0.00,,,-99.99,,2013-09-17 08:32:00,
2013-09-17 04:42:00,53.0,43.0,-100.00,NNE,16,5.0,16.0,70,0.00,,,-99.99,,2013-09-17 08:42:00,
2013-09-17 05:22:00,52.0,43.0,-100.00,NNE,15,5.0,16.0,69,0.00,,,-99.99,,2013-09-17 09:22:00,
2013-09-17 05:33:00,52.0,43.0,-100.00,NNE,15,5.0,16.0,69,0.00,,,-99.99,,2013-09-17 09:33:00,
2013-09-17 05:43:00,52.0,43.0,-100.00,NNE,15,5.0,16.0,69,0.00,,,-99.99,,2013-09-17 09:43:00,
2013-09-17 06:23:00,52.0,43.0,-100.00,NNE,16,4.0,9.0,71,0.00,,,-99.99,,2013-09-17 10:23:00,
2013-09-17 06:33:00,52.0,43.0,-100.00,NNE,16,4.0,9.0,71,0.00,,,-99.99,,2013-09-17 10:33:00,
2013-09-17 06:42:00,52.0,43.0,-100.00,NNE,16,4.0,9.0,71,0.00,,,-99.99,,2013-09-17 10:42:00,
2013-09-17 07:22:00,52.0,42.0,-100.00,NNE,28,3.0,9.0,69,0.00,,,-99.99,,2013-09-17 11:22:00,
2013-09-17 07:33:00,52.0,42.0,-100.00,NNE,28,3.0,9.0,69,0.00,,,-99.99,,2013-09-17 11:33:00,
2013-09-17 07:43:00,52.0,42.0,-100.00,NNE,28,3.0,9.0,69,0.00,,,-99.99,,2013-09-17 11:43:00,
2013-09-17 08:22:00,52.0,40.0,-100.00,NNE,18,3.0,9.0,64,0.00,,,-99.99,,2013-09-17 12:22:00,
2013-09-17 08:33:00,52.0,40.0,-100.00,NNE,18,3.0,9.0,64,0.00,,,-99.99,,2013-09-17 12:33:00,
2013-09-17 08:42:00,52.0,40.0,-100.00,NNE,18,3.0,9.0,64,0.00,,,-99.99,,2013-09-17 12:42:00,
2013-09-17 09:22:00,54.0,40.0,-100.00,NE,46,6.0,14.0,59,0.00,,,-99.99,,2013-09-17 13:22:00,
2013-09-17 09:32:00,54.0,40.0,-100.00,NE,46,6.0,14.0,59,0.00,,,-99.99,,2013-09-17 13:32:00,
2013-09-17 09:42:00,54.0,40.0,-100.00,NE,46,6.0,14.0,59,0.00,,,-99.99,,2013-09-17 13:42:00,
2013-09-17 10:22:00,55.0,40.0,-100.00,NNE,22,5.0,18.0,57,0.00,,,-99.99,,2013-09-17 14:22:00,
2013-09-17 10:32:00,55.0,40.0,-100.00,NNE,22,5.0,18.0,57,0.00,,,-99.99,,2013-09-17 14:32:00,
2013-09-17 10:42:00,55.0,40.0,-100.00,NNE,22,5.0,18.0,57,0.00,,,-99.99,,2013-09-17 14:42:00,
2013-09-17 11:22:00,57.0,40.0,-100.00,NE,54,5.0,15.0,54,0.00,,,-99.99,,2013-09-17 15:22:00,
2013-09-17 11:34:00,57.0,40.0,-100.00,NE,54,5.0,15.0,54,0.00,,,-99.99,,2013-09-17 15:34:00,
2013-09-17 11:44:00,57.0,40.0,-100.00,NE,54,5.0,15.0,54,0.00,,,-99.99,,2013-09-17 15:44:00,
2013-09-17 12:23:00,56.0,40.0,-100.00,NNE,33,6.0,18.0,54,0.00,,,-99.99,,2013-09-17 16:23:00,
2013-09-17 12:32:00,56.0,40.0,-100.00,NNE,33,6.0,18.0,54,0.00,,,-99.99,,2013-09-17 16:32:00,
2013-09-17 12:42:00,56.0,40.0,-100.00,NNE,33,6.0,18.0,54,0.00,,,-99.99,,2013-09-17 16:42:00,
2013-09-17 13:24:00,58.0,41.0,-100.00,North,3,6.0,15.0,53,0.00,,,-99.99,,2013-09-17 17:24:00,
2013-09-17 13:34:00,58.0,41.0,-100.00,North,3,6.0,15.0,53,0.00,,,-99.99,,2013-09-17 17:34:00,
2013-09-17 13:43:00,58.0,41.0,-100.00,North,3,6.0,15.0,53,0.00,,,-99.99,,2013-09-17 17:43:00,
2013-09-17 14:22:00,58.0,41.0,-100.00,NNE,15,6.0,15.0,53,0.00,,,-99.99,,2013-09-17 18:22:00,
2013-09-17 14:32:00,58.0,41.0,-100.00,NNE,15,6.0,15.0,53,0.00,,,-99.99,,2013-09-17 18:32:00,
2013-09-17 14:42:00,58.0,41.0,-100.00,NNE,15,6.0,15.0,53,0.00,,,-99.99,,2013-09-17 18:42:00,
2013-09-17 15:22:00,58.0,40.0,-100.00,North,5,5.0,18.0,51,0.00,,,-99.99,,2013-09-17 19:22:00,
2013-09-17 15:32:00,58.0,40.0,-100.00,North,5,5.0,18.0,51,0.00,,,-99.99,,2013-09-17 19:32:00,
2013-09-17 15:42:00,58.0,40.0,-100.00,North,5,5.0,18.0,51,0.00,,,-99.99,,2013-09-17 19:42:00,
2013-09-17 16:22:00,58.0,41.0,-100.00,NNE,17,4.0,11.0,54,0.00,,,-99.99,,2013-09-17 20:22:00,
2013-09-17 16:32:00,58.0,41.0,-100.00,NNE,17,4.0,11.0,54,0.00,,,-99.99,,2013-09-17 20:32:00,
2013-09-17 16:42:00,58.0,41.0,-100.00,NNE,17,4.0,11.0,54,0.00,,,-99.99,,2013-09-17 20:42:00,
2013-09-17 17:22:00,57.0,42.0,-100.00,North,6,5.0,12.0,57,0.00,,,-99.99,,2013-09-17 21:22:00,
2013-09-17 17:34:00,57.0,42.0,-100.00,North,6,5.0,12.0,57,0.00,,,-99.99,,2013-09-17 21:34:00,
2013-09-17 17:44:00,57.0,42.0,-100.00,North,6,5.0,12.0,57,0.00,,,-99.99,,2013-09-17 21:44:00,
2013-09-17 18:24:00,56.0,42.0,-100.00,North,1,3.0,10.0,59,0.00,,,-99.99,,2013-09-17 22:24:00,
2013-09-17 18:33:00,56.0,42.0,-100.00,North,1,3.0,10.0,59,0.00,,,-99.99,,2013-09-17 22:33:00,
2013-09-17 18:43:00,56.0,42.0,-100.00,North,1,3.0,10.0,59,0.00,,,-99.99,,2013-09-17 22:43:00,
2013-09-17 19:22:00,53.0,44.0,-100.00,NNW,340,2.0,3.0,70,0.00,,,-99.99,,2013-09-17 23:22:00,
2013-09-17 19:34:00,53.0,44.0,-100.00,NNW,340,2.0,3.0,70,0.00,,,-99.99,,2013-09-17 23:34:00,
2013-09-17 19:42:00,53.0,44.0,-100.00,NNW,340,2.0,3.0,70,0.00,,,-99.99,,2013-09-17 23:42:00,
2013-09-17 20:22:00,48.0,44.0,-100.00,NNW,335,2.0,3.0,84,0.00,,,-99.99,,2013-09-18 00:22:00,
2013-09-17 20:32:00,48.0,44.0,-100.00,NNW,335,2.0,3.0,84,0.00,,,-99.99,,2013-09-18 00:32:00,
2013-09-17 20:42:00,48.0,44.0,-100.00,NNW,335,2.0,3.0,84,0.00,,,-99.99,,2013-09-18 00:42:00,
2013-09-17 21:22:00,47.0,43.0,-100.00,North,355,1.0,2.0,86,0.00,,,-99.99,,2013-09-18 01:22:00,
2013-09-17 21:32:00,47.0,43.0,-100.00,North,355,1.0,2.0,86,0.00,,,-99.99,,2013-09-18 01:32:00,
2013-09-17 21:42:00,47.0,43.0,-100.00,North,355,1.0,2.0,86,0.00,,,-99.99,,2013-09-18 01:42:00,
2013-09-17 22:22:00,46.0,42.0,-100.00,NNE,12,0.0,2.0,88,0.00,,,-99.99,,2013-09-18 02:22:00,
2013-09-17 22:32:00,46.0,42.0,-100.00,NNE,12,0.0,2.0,88,0.00,,,-99.99,,2013-09-18 02:32:00,
2013-09-17 22:43:00,46.0,42.0,-100.00,NNE,12,0.0,2.0,88,0.00,,,-99.99,,2013-09-18 02:43:00,
2013-09-17 23:23:00,44.0,41.0,-100.00,North,9,1.0,1.0,91,0.00,,,-99.99,,2013-09-18 03:23:00,
2013-09-17 23:35:00,44.0,41.0,-100.00,North,9,1.0,1.0,91,0.00,,,-99.99,,2013-09-18 03:35:00,
2013-09-17 23:44:00,44.0,41.0,-100.00,North,9,1.0,1.0,91,0.00,,,-99.99,,2013-09-18 03:44:00,